createdAt,value
2022-10-11T00:03:00.834Z,2.75
2022-10-11T00:07:03.702Z,2.80
2022-10-11T00:11:08.988Z,3.10
2022-10-11T00:15:14.853Z,2.67
2022-10-11T00:19:17.925Z,2.80
2022-10-11T00:23:20.890Z,2.67
2022-10-11T00:27:25.344Z,2.50
2022-10-11T00:31:33.288Z,2.22
2022-10-11T00:35:41.410Z,2.75
2022-10-11T00:39:44.372Z,2.83
2022-10-11T00:43:48.898Z,2.72
2022-10-11T00:47:51.713Z,2.35
2022-10-11T00:51:57.979Z,1.92
2022-10-11T00:56:05.157Z,2.35
2022-10-11T01:00:12.601Z,2.47
2022-10-11T01:04:15.834Z,2.22
2022-10-11T01:08:19.529Z,2.42
2022-10-11T01:12:25.606Z,2.45
2022-10-11T01:16:34.591Z,2.42
2022-10-11T01:20:52.489Z,2.88
2022-10-11T01:25:14.260Z,2.42
2022-10-11T01:29:26.087Z,2.10
2022-10-11T01:33:37.305Z,2.40
2022-10-11T01:37:44.999Z,2.70
2022-10-11T01:41:51.405Z,2.85
2022-10-11T01:45:57.211Z,2.63
2022-10-11T01:50:02.869Z,3.28
2022-10-11T01:54:39.414Z,2.97
2022-10-11T01:59:13.554Z,2.80
2022-10-11T02:03:29.925Z,2.90
2022-10-11T02:07:41.799Z,2.45
2022-10-11T02:11:44.697Z,2.95
2022-10-11T02:15:50.670Z,2.97
2022-10-11T02:19:57.365Z,3.10
2022-10-11T02:24:05.296Z,3.60
2022-10-11T02:28:12.139Z,3.58
2022-10-11T02:32:16.694Z,3.50
2022-10-11T02:36:25.078Z,3.28
2022-10-11T02:40:33.215Z,2.70
2022-10-11T02:44:41.313Z,3.30
2022-10-11T02:48:44.146Z,2.45
2022-10-11T02:52:46.990Z,3.20
2022-10-11T02:56:51.207Z,3.00
2022-10-11T03:00:54.069Z,3.67
2022-10-11T03:04:57.615Z,3.17
2022-10-11T03:09:00.438Z,3.42
2022-10-11T03:13:04.950Z,3.17
2022-10-11T03:17:31.020Z,4.45
2022-10-11T03:21:30.631Z,4.50
2022-10-11T03:25:33.693Z,6.53
2022-10-11T03:29:37.863Z,7.20
2022-10-11T03:33:40.813Z,9.60
2022-10-11T03:37:43.609Z,10.43
2022-10-11T03:41:46.579Z,12.65
2022-10-11T03:45:50.758Z,11.90
2022-10-11T03:49:53.604Z,11.50
2022-10-11T03:53:56.416Z,11.70
2022-10-11T03:57:59.253Z,12.35
2022-10-11T04:02:04.610Z,13.05
2022-10-11T04:06:08.710Z,13.27
2022-10-11T04:10:11.703Z,13.38
2022-10-11T04:14:14.533Z,13.35
2022-10-11T04:18:18.722Z,13.82
2022-10-11T04:22:21.519Z,14.48
2022-10-11T04:26:24.481Z,14.75
2022-10-11T04:30:27.312Z,14.90
2022-10-11T04:34:31.559Z,15.23
2022-10-11T04:38:34.502Z,15.60
2022-10-11T04:42:37.469Z,17.02
2022-10-11T04:46:40.337Z,15.82
2022-10-11T04:50:46.460Z,15.48
2022-10-11T04:54:52.373Z,16.50
2022-10-11T04:58:55.169Z,17.23
2022-10-11T05:02:58.023Z,14.63
2022-10-11T05:07:02.270Z,15.48
2022-10-11T05:11:07.407Z,15.18
2022-10-11T05:15:11.195Z,14.88
2022-10-11T05:19:14.012Z,14.50
2022-10-11T05:23:18.172Z,14.85
2022-10-11T05:27:21.146Z,14.20
2022-10-11T05:31:24.229Z,14.35
2022-10-11T05:35:27.132Z,14.52
2022-10-11T05:39:32.265Z,13.38
2022-10-11T05:43:35.203Z,14.32
2022-10-11T05:47:38.143Z,15.10
2022-10-11T05:51:40.960Z,16.35
2022-10-11T05:55:45.550Z,15.45
2022-10-11T05:59:48.374Z,15.55
2022-10-11T06:03:51.316Z,16.15
2022-10-11T06:07:54.276Z,16.27
2022-10-11T06:11:58.699Z,16.08
2022-10-11T06:16:04.364Z,15.85
2022-10-11T06:20:08.480Z,16.17
2022-10-11T06:24:12.223Z,16.85
2022-10-11T06:28:16.484Z,16.13
2022-10-11T06:32:19.329Z,16.92
2022-10-11T06:36:22.342Z,16.85
2022-10-11T06:40:25.544Z,17.35
2022-10-11T06:44:30.245Z,17.50
2022-10-11T06:48:33.206Z,17.80
2022-10-11T06:52:36.069Z,17.58
2022-10-11T06:56:39.014Z,16.55
2022-10-11T07:00:43.317Z,16.67
2022-10-11T07:04:46.215Z,18.48
2022-10-11T07:08:49.974Z,17.80
2022-10-11T07:12:52.838Z,17.48
2022-10-11T07:16:57.273Z,17.50
2022-10-11T07:21:03.302Z,16.25
2022-10-11T07:25:07.130Z,15.90
2022-10-11T07:29:11.747Z,15.55
2022-10-11T07:33:15.923Z,16.48
2022-10-11T07:37:18.743Z,17.13
2022-10-11T07:41:21.900Z,17.08
2022-10-11T07:45:25.375Z,17.15
2022-10-11T07:49:29.591Z,16.20
2022-10-11T07:53:32.445Z,14.75
2022-10-11T07:57:35.290Z,13.93
2022-10-11T08:01:38.175Z,14.45
2022-10-11T08:05:42.401Z,14.63
2022-10-11T08:09:45.198Z,14.30
2022-10-11T08:14:08.445Z,13.65
2022-10-11T08:18:11.226Z,13.05
2022-10-11T08:22:15.513Z,13.75
2022-10-11T08:26:18.393Z,14.73
2022-10-11T08:30:21.320Z,14.48
2022-10-11T08:34:24.149Z,15.10
2022-10-11T08:38:28.297Z,15.50
2022-10-11T08:42:36.481Z,17.40
2022-10-11T08:46:42.998Z,18.63
2022-10-11T08:50:48.695Z,17.38
2022-10-11T08:54:56.869Z,17.58
2022-10-11T08:59:05.547Z,17.13
2022-10-11T09:03:22.689Z,14.40
2022-10-11T09:07:38.452Z,12.77
2022-10-11T09:11:53.544Z,12.18
2022-10-11T09:16:05.258Z,13.60
2022-10-11T09:20:35.749Z,14.73
2022-10-11T09:24:53.529Z,13.43
2022-10-11T09:29:02.865Z,12.90
2022-10-11T09:33:14.504Z,13.35
2022-10-11T09:37:25.483Z,11.93
2022-10-11T09:41:37.421Z,12.82
2022-10-11T09:45:49.140Z,11.77
2022-10-11T09:49:57.587Z,12.02
2022-10-11T09:54:02.868Z,11.50
2022-10-11T09:58:09.499Z,10.88
2022-10-11T10:02:21.219Z,11.07
2022-10-11T10:06:27.062Z,10.70
2022-10-11T10:10:35.081Z,9.90
2022-10-11T10:14:37.957Z,10.52
2022-10-11T10:18:49.214Z,9.30
2022-10-11T10:22:52.898Z,8.52
2022-10-11T10:27:18.054Z,7.63
2022-10-11T10:31:23.801Z,8.88
2022-10-11T10:35:32.397Z,7.60
2022-10-11T10:39:41.734Z,7.18
2022-10-11T10:43:52.589Z,7.53
2022-10-11T10:48:08.868Z,7.20
2022-10-11T10:52:42.811Z,7.00
2022-10-11T10:56:52.963Z,7.05
2022-10-11T11:01:02.916Z,7.82
2022-10-11T11:05:16.277Z,6.95
2022-10-11T11:09:39.090Z,7.20
2022-10-11T11:13:48.497Z,5.18
2022-10-11T11:18:05.173Z,6.22
2022-10-11T11:22:15.714Z,4.85
2022-10-11T11:26:26.311Z,4.80
2022-10-11T11:30:37.264Z,5.60
2022-10-11T11:34:44.402Z,6.78
2022-10-11T11:38:52.248Z,5.32
2022-10-11T11:42:58.925Z,4.07
2022-10-11T11:47:04.928Z,5.40
2022-10-11T11:51:13.020Z,3.90
2022-10-11T11:55:22.170Z,3.92
2022-10-11T11:59:32.595Z,4.88
2022-10-11T12:03:41.850Z,3.80
2022-10-11T12:07:55.086Z,4.00
2022-10-11T12:12:00.207Z,2.20
2022-10-11T12:16:12.446Z,2.72
2022-10-11T12:20:22.062Z,3.35
2022-10-11T12:24:25.761Z,3.10
2022-10-11T12:29:03.626Z,3.20
2022-10-11T12:33:15.950Z,2.42
2022-10-11T12:37:51.281Z,2.97
2022-10-11T12:42:06.904Z,3.33
2022-10-11T12:46:40.301Z,2.15
2022-10-11T12:51:02.911Z,2.53
2022-10-11T12:55:30.424Z,2.70
2022-10-11T12:59:33.801Z,2.22
2022-10-11T13:03:40.186Z,2.78
2022-10-11T13:07:45.109Z,1.95
2022-10-11T13:11:52.001Z,2.38
2022-10-11T13:15:57.753Z,3.10
2022-10-11T13:20:02.414Z,2.92
2022-10-11T13:24:13.443Z,3.30
2022-10-11T13:28:17.126Z,2.90
2022-10-11T13:32:23.726Z,3.13
2022-10-11T13:36:28.291Z,2.95
2022-10-11T13:40:34.623Z,2.90
2022-10-11T13:44:38.764Z,2.83
2022-10-11T13:48:41.799Z,2.65
2022-10-11T13:52:59.892Z,2.45
2022-10-11T13:57:04.425Z,2.38
2022-10-11T14:01:18.054Z,2.72
2022-10-11T14:05:29.312Z,2.40
2022-10-11T14:09:34.788Z,2.58
2022-10-11T14:13:41.376Z,3.17
2022-10-11T14:17:47.111Z,2.85
2022-10-11T14:21:54.869Z,3.00
2022-10-11T14:25:57.704Z,2.55
2022-10-11T14:30:24.510Z,2.30
2022-10-11T14:34:31.911Z,2.35
2022-10-11T14:38:34.702Z,2.22
2022-10-11T14:42:37.543Z,2.03
2022-10-11T14:46:42.637Z,2.30
2022-10-11T14:50:50.111Z,2.22
2022-10-11T14:54:52.934Z,1.80
2022-10-11T14:58:58.670Z,2.10
2022-10-11T15:03:03.719Z,2.13
2022-10-11T15:07:06.670Z,2.38
2022-10-11T15:11:11.632Z,2.13
2022-10-11T15:15:19.733Z,2.33
2022-10-11T15:19:25.665Z,2.20
2022-10-11T15:23:28.579Z,3.15
2022-10-11T15:27:31.445Z,2.25
2022-10-11T15:31:34.360Z,2.20
2022-10-11T15:35:38.750Z,2.60
2022-10-11T15:39:44.621Z,3.45
2022-10-11T15:43:49.241Z,2.17
2022-10-11T15:47:52.714Z,2.63
2022-10-11T15:51:56.967Z,2.33
2022-10-11T15:56:03.261Z,2.60
2022-10-11T16:00:07.261Z,3.22
2022-10-11T16:04:14.643Z,3.10
2022-10-11T16:08:18.781Z,2.53
2022-10-11T16:12:21.733Z,2.67
2022-10-11T16:16:24.617Z,2.05
2022-10-11T16:20:27.451Z,2.10
2022-10-11T16:24:31.679Z,2.50
2022-10-11T16:28:35.584Z,2.28
2022-10-11T16:32:39.235Z,2.65
2022-10-11T16:36:42.786Z,2.80
2022-10-11T16:40:48.813Z,3.20
2022-10-11T16:44:52.035Z,3.20
2022-10-11T16:48:56.219Z,2.72
2022-10-11T16:52:59.239Z,3.55
2022-10-11T16:57:03.549Z,3.03
2022-10-11T17:01:10.548Z,3.45
2022-10-11T17:05:13.474Z,3.13
2022-10-11T17:13:47.978Z,4.10
2022-10-11T17:17:50.783Z,4.55
2022-10-11T17:21:53.649Z,4.70
2022-10-11T17:25:56.790Z,5.63
2022-10-11T17:30:00.979Z,9.75
2022-10-11T17:34:03.821Z,7.65
2022-10-11T17:38:06.709Z,7.30
2022-10-11T17:42:09.598Z,7.70
2022-10-11T17:46:15.796Z,7.47
2022-10-11T17:50:18.950Z,7.22
2022-10-11T17:54:21.830Z,6.10
2022-10-11T17:58:26.733Z,6.40
2022-10-11T18:02:32.093Z,5.53
2022-10-11T18:06:40.447Z,5.60
2022-10-11T18:10:47.451Z,5.60
2022-10-11T18:14:51.242Z,5.63
2022-10-11T18:18:57.550Z,6.60
2022-10-11T18:23:00.784Z,6.78
2022-10-11T18:27:03.769Z,6.68
2022-10-11T18:31:12.559Z,7.10
2022-10-11T18:35:17.801Z,8.07
2022-10-11T18:39:21.784Z,7.35
2022-10-11T18:43:24.610Z,7.07
2022-10-11T18:47:27.614Z,8.45
2022-10-11T18:51:33.835Z,7.78
2022-10-11T18:55:37.321Z,7.22
2022-10-11T18:59:40.205Z,5.82
2022-10-11T19:03:45.045Z,5.50
2022-10-11T19:07:50.695Z,6.35
2022-10-11T19:11:56.226Z,5.80
2022-10-11T19:16:06.026Z,4.88
2022-10-11T19:20:12.721Z,5.47
2022-10-11T19:24:17.185Z,5.35
2022-10-11T19:28:20.114Z,6.15
2022-10-11T19:32:22.946Z,6.53
2022-10-11T19:36:26.077Z,7.90
2022-10-11T19:40:33.082Z,7.88
2022-10-11T19:44:39.820Z,7.47
2022-10-11T19:48:44.588Z,6.80
2022-10-11T19:52:47.431Z,8.30
2022-10-11T19:56:51.745Z,7.70
2022-10-11T20:01:01.358Z,7.60
2022-10-11T20:05:04.610Z,7.80
2022-10-11T20:09:28.425Z,7.32
2022-10-11T20:13:35.051Z,6.93
2022-10-11T20:17:50.275Z,7.75
2022-10-11T20:21:53.181Z,7.30
2022-10-11T20:26:00.470Z,7.68
2022-10-11T20:30:05.449Z,7.35
2022-10-11T20:34:08.574Z,7.00
2022-10-11T20:38:11.393Z,6.93
2022-10-11T20:42:15.325Z,6.13
2022-10-11T20:46:21.046Z,5.93
2022-10-11T20:50:23.891Z,7.32
2022-10-11T20:54:28.867Z,6.32
2022-10-11T20:58:32.165Z,6.35
2022-10-11T21:02:36.801Z,6.47
2022-10-11T21:06:40.636Z,6.38
2022-10-11T21:10:52.437Z,7.00
2022-10-11T21:14:55.336Z,7.22
2022-10-11T21:19:01.793Z,6.43
2022-10-11T21:23:04.631Z,6.75
2022-10-11T21:27:07.621Z,6.90
2022-10-11T21:31:12.497Z,7.20
2022-10-11T21:35:16.823Z,6.65
2022-10-11T21:39:19.739Z,6.65
2022-10-11T21:43:22.555Z,6.88
2022-10-11T21:47:25.632Z,7.32
2022-10-11T21:51:31.974Z,7.45
2022-10-11T21:55:34.769Z,7.38
2022-10-11T21:59:37.619Z,7.50
2022-10-11T22:03:40.482Z,6.88
2022-10-11T22:07:45.393Z,7.90
2022-10-11T22:11:48.229Z,7.20
2022-10-11T22:15:51.051Z,6.47
2022-10-11T22:19:53.841Z,7.03
2022-10-11T22:23:58.030Z,7.45
2022-10-11T22:28:00.863Z,6.47
2022-10-11T22:32:03.699Z,7.07
2022-10-11T22:36:08.914Z,6.53
2022-10-11T22:40:13.630Z,6.45
2022-10-11T22:44:16.663Z,6.13
2022-10-11T22:48:19.470Z,6.63
2022-10-11T22:52:22.283Z,6.40
2022-10-11T22:56:26.501Z,6.60
2022-10-11T23:00:29.477Z,7.05
2022-10-11T23:04:32.286Z,6.60
2022-10-11T23:08:35.213Z,6.47
2022-10-11T23:12:39.406Z,6.57
2022-10-11T23:16:42.208Z,6.78
2022-10-11T23:20:45.231Z,6.50
2022-10-11T23:24:48.111Z,8.23
2022-10-11T23:28:58.188Z,7.30
2022-10-11T23:33:03.246Z,5.88
2022-10-11T23:37:06.599Z,6.70
2022-10-11T23:41:09.475Z,6.80
2022-10-11T23:45:13.627Z,7.57
2022-10-11T23:49:16.894Z,6.97
2022-10-11T23:53:19.826Z,6.78
2022-10-11T23:57:22.666Z,6.57
